sensor_id;sensor_type;location;lat;lon;timestamp;temperature;humidity
7606;DHT22;3844;53.360;9.738;2023-04-25T00:00:46;7.40;95.70
7606;DHT22;3844;53.360;9.738;2023-04-25T00:04:48;7.40;95.70
7606;DHT22;3844;53.360;9.738;2023-04-25T00:06:53;7.40;95.70
7606;DHT22;3844;53.360;9.738;2023-04-25T00:08:53;7.40;95.70
7606;DHT22;3844;53.360;9.738;2023-04-25T00:10:57;7.30;95.70
7606;DHT22;3844;53.360;9.738;2023-04-25T00:12:57;7.40;95.70
7606;DHT22;3844;53.360;9.738;2023-04-25T00:14:59;7.30;95.70
7606;DHT22;3844;53.360;9.738;2023-04-25T00:17:00;7.30;95.70
7606;DHT22;3844;53.360;9.738;2023-04-25T00:19:01;7.30;95.70
7606;DHT22;3844;53.360;9.738;2023-04-25T00:21:04;7.30;95.70
7606;DHT22;3844;53.360;9.738;2023-04-25T00:23:06;7.20;95.70
7606;DHT22;3844;53.360;9.738;2023-04-25T00:25:08;7.20;95.70
7606;DHT22;3844;53.360;9.738;2023-04-25T00:29:10;7.20;95.70
7606;DHT22;3844;53.360;9.738;2023-04-25T00:33:11;7.10;95.70
7606;DHT22;3844;53.360;9.738;2023-04-25T00:35:12;7.10;95.70
7606;DHT22;3844;53.360;9.738;2023-04-25T00:37:13;7.10;95.70
7606;DHT22;3844;53.360;9.738;2023-04-25T00:41:15;7.10;95.70
7606;DHT22;3844;53.360;9.738;2023-04-25T00:43:15;7.10;95.70
7606;DHT22;3844;53.360;9.738;2023-04-25T00:45:17;7.10;95.70
7606;DHT22;3844;53.360;9.738;2023-04-25T00:47:18;7.10;95.70
7606;DHT22;3844;53.360;9.738;2023-04-25T00:49:19;7.10;95.70
7606;DHT22;3844;53.360;9.738;2023-04-25T00:51:21;7.10;95.70
7606;DHT22;3844;53.360;9.738;2023-04-25T00:53:23;7.10;95.70
7606;DHT22;3844;53.360;9.738;2023-04-25T00:55:24;7.00;95.70
7606;DHT22;3844;53.360;9.738;2023-04-25T00:57:25;7.00;95.70
7606;DHT22;3844;53.360;9.738;2023-04-25T01:01:27;7.00;95.70
7606;DHT22;3844;53.360;9.738;2023-04-25T01:03:28;6.90;95.70
7606;DHT22;3844;53.360;9.738;2023-04-25T01:05:31;6.90;95.70
7606;DHT22;3844;53.360;9.738;2023-04-25T01:09:33;6.90;95.70
7606;DHT22;3844;53.360;9.738;2023-04-25T01:11:34;6.90;95.70
7606;DHT22;3844;53.360;9.738;2023-04-25T01:13:35;6.80;95.70
7606;DHT22;3844;53.360;9.738;2023-04-25T01:17:36;6.80;95.70
7606;DHT22;3844;53.360;9.738;2023-04-25T01:19:37;6.70;95.70
7606;DHT22;3844;53.360;9.738;2023-04-25T01:21:38;6.70;95.70
7606;DHT22;3844;53.360;9.738;2023-04-25T01:23:40;6.60;95.70
7606;DHT22;3844;53.360;9.738;2023-04-25T01:25:41;6.60;95.70
7606;DHT22;3844;53.360;9.738;2023-04-25T01:27:42;6.60;95.70
7606;DHT22;3844;53.360;9.738;2023-04-25T01:29:43;6.60;95.70
7606;DHT22;3844;53.360;9.738;2023-04-25T01:31:44;6.50;95.70
7606;DHT22;3844;53.360;9.738;2023-04-25T01:33:45;6.50;95.70
7606;DHT22;3844;53.360;9.738;2023-04-25T01:37:47;6.40;95.70
7606;DHT22;3844;53.360;9.738;2023-04-25T01:39:49;6.30;95.70
7606;DHT22;3844;53.360;9.738;2023-04-25T01:41:50;6.30;95.70
7606;DHT22;3844;53.360;9.738;2023-04-25T01:43:51;6.30;95.70
7606;DHT22;3844;53.360;9.738;2023-04-25T01:45:52;6.30;95.70
7606;DHT22;3844;53.360;9.738;2023-04-25T01:49:54;6.30;95.70
7606;DHT22;3844;53.360;9.738;2023-04-25T01:51:55;6.20;95.70
7606;DHT22;3844;53.360;9.738;2023-04-25T01:53:56;6.20;95.70
7606;DHT22;3844;53.360;9.738;2023-04-25T01:55:57;6.10;95.70
7606;DHT22;3844;53.360;9.738;2023-04-25T02:00:03;6.10;95.70
7606;DHT22;3844;53.360;9.738;2023-04-25T02:02:04;6.00;95.70
7606;DHT22;3844;53.360;9.738;2023-04-25T02:04:05;6.00;95.70
7606;DHT22;3844;53.360;9.738;2023-04-25T02:08:08;6.00;95.70
7606;DHT22;3844;53.360;9.738;2023-04-25T02:10:09;5.90;95.70
7606;DHT22;3844;53.360;9.738;2023-04-25T02:12:10;5.90;95.70
7606;DHT22;3844;53.360;9.738;2023-04-25T02:14:11;5.90;95.70
7606;DHT22;3844;53.360;9.738;2023-04-25T02:18:13;5.80;95.70
7606;DHT22;3844;53.360;9.738;2023-04-25T02:22:17;5.70;95.70
7606;DHT22;3844;53.360;9.738;2023-04-25T02:24:18;5.70;95.70
7606;DHT22;3844;53.360;9.738;2023-04-25T02:26:19;5.60;95.70
7606;DHT22;3844;53.360;9.738;2023-04-25T02:28:20;5.60;95.70
7606;DHT22;3844;53.360;9.738;2023-04-25T02:32:21;5.60;95.70
7606;DHT22;3844;53.360;9.738;2023-04-25T02:36:23;5.60;95.70
7606;DHT22;3844;53.360;9.738;2023-04-25T02:38:24;5.70;95.70
7606;DHT22;3844;53.360;9.738;2023-04-25T02:42:26;5.70;95.70
7606;DHT22;3844;53.360;9.738;2023-04-25T02:44:27;5.70;95.70
7606;DHT22;3844;53.360;9.738;2023-04-25T02:48:29;5.70;95.70
7606;DHT22;3844;53.360;9.738;2023-04-25T02:50:29;5.70;95.70
7606;DHT22;3844;53.360;9.738;2023-04-25T02:54:31;5.60;95.70
7606;DHT22;3844;53.360;9.738;2023-04-25T02:56:32;5.60;95.70
7606;DHT22;3844;53.360;9.738;2023-04-25T02:58:33;5.60;95.70
7606;DHT22;3844;53.360;9.738;2023-04-25T03:02:35;5.60;95.70
7606;DHT22;3844;53.360;9.738;2023-04-25T03:06:36;5.50;95.70
7606;DHT22;3844;53.360;9.738;2023-04-25T03:10:39;5.50;95.70
7606;DHT22;3844;53.360;9.738;2023-04-25T03:12:39;5.50;95.70
7606;DHT22;3844;53.360;9.738;2023-04-25T03:16:41;5.40;95.70
7606;DHT22;3844;53.360;9.738;2023-04-25T03:20:43;5.20;95.70
7606;DHT22;3844;53.360;9.738;2023-04-25T03:22:44;5.10;95.70
7606;DHT22;3844;53.360;9.738;2023-04-25T03:24:45;5.10;95.70
7606;DHT22;3844;53.360;9.738;2023-04-25T03:28:47;4.90;95.70
7606;DHT22;3844;53.360;9.738;2023-04-25T03:30:47;4.90;95.70
7606;DHT22;3844;53.360;9.738;2023-04-25T03:34:49;4.70;95.70
7606;DHT22;3844;53.360;9.738;2023-04-25T03:38:51;4.60;95.70
7606;DHT22;3844;53.360;9.738;2023-04-25T03:42:53;4.50;95.70
7606;DHT22;3844;53.360;9.738;2023-04-25T03:46:55;4.50;95.70
7606;DHT22;3844;53.360;9.738;2023-04-25T03:50:56;4.30;95.70
7606;DHT22;3844;53.360;9.738;2023-04-25T03:52:57;4.30;95.70
7606;DHT22;3844;53.360;9.738;2023-04-25T03:56:59;4.20;95.70
7606;DHT22;3844;53.360;9.738;2023-04-25T04:01:01;4.20;95.70
7606;DHT22;3844;53.360;9.738;2023-04-25T04:05:05;4.20;95.70
7606;DHT22;3844;53.360;9.738;2023-04-25T04:07:06;4.30;95.70
7606;DHT22;3844;53.360;9.738;2023-04-25T04:09:07;4.30;95.70
7606;DHT22;3844;53.360;9.738;2023-04-25T04:13:12;4.40;95.70
7606;DHT22;3844;53.360;9.738;2023-04-25T04:15:13;4.50;95.70
7606;DHT22;3844;53.360;9.738;2023-04-25T04:17:13;4.50;95.70
7606;DHT22;3844;53.360;9.738;2023-04-25T04:19:15;4.50;95.70
7606;DHT22;3844;53.360;9.738;2023-04-25T04:25:17;4.60;95.70
7606;DHT22;3844;53.360;9.738;2023-04-25T04:27:18;4.70;95.70
7606;DHT22;3844;53.360;9.738;2023-04-25T04:29:19;4.60;95.70
7606;DHT22;3844;53.360;9.738;2023-04-25T04:31:23;4.70;95.70
7606;DHT22;3844;53.360;9.738;2023-04-25T04:33:24;4.70;95.70
7606;DHT22;3844;53.360;9.738;2023-04-25T04:35:24;4.70;95.70
7606;DHT22;3844;53.360;9.738;2023-04-25T04:39:26;4.80;95.70
7606;DHT22;3844;53.360;9.738;2023-04-25T04:43:28;4.80;95.70
7606;DHT22;3844;53.360;9.738;2023-04-25T04:47:30;4.90;95.70
7606;DHT22;3844;53.360;9.738;2023-04-25T04:49:33;4.90;95.70
7606;DHT22;3844;53.360;9.738;2023-04-25T04:51:33;4.90;95.70
7606;DHT22;3844;53.360;9.738;2023-04-25T04:55:35;5.10;95.70
7606;DHT22;3844;53.360;9.738;2023-04-25T04:59:37;5.20;95.70
7606;DHT22;3844;53.360;9.738;2023-04-25T05:03:38;5.30;95.70
7606;DHT22;3844;53.360;9.738;2023-04-25T05:05:40;5.30;95.70
7606;DHT22;3844;53.360;9.738;2023-04-25T05:07:41;5.40;95.70
7606;DHT22;3844;53.360;9.738;2023-04-25T05:11:43;5.40;95.70
7606;DHT22;3844;53.360;9.738;2023-04-25T05:15:44;5.40;95.70
7606;DHT22;3844;53.360;9.738;2023-04-25T05:17:45;5.30;95.70
7606;DHT22;3844;53.360;9.738;2023-04-25T05:21:47;5.30;95.70
7606;DHT22;3844;53.360;9.738;2023-04-25T05:25:49;5.30;95.70
7606;DHT22;3844;53.360;9.738;2023-04-25T05:27:50;5.30;95.70
7606;DHT22;3844;53.360;9.738;2023-04-25T05:29:52;5.30;95.70
7606;DHT22;3844;53.360;9.738;2023-04-25T05:33:54;5.30;95.00
7606;DHT22;3844;53.360;9.738;2023-04-25T05:37:56;5.40;95.10
7606;DHT22;3844;53.360;9.738;2023-04-25T05:39:57;5.40;93.90
7606;DHT22;3844;53.360;9.738;2023-04-25T05:43:58;5.50;94.90
7606;DHT22;3844;53.360;9.738;2023-04-25T05:45:59;5.60;94.70
7606;DHT22;3844;53.360;9.738;2023-04-25T05:48:00;5.60;95.10
7606;DHT22;3844;53.360;9.738;2023-04-25T05:50:00;5.70;94.10
7606;DHT22;3844;53.360;9.738;2023-04-25T05:52:02;5.70;94.20
7606;DHT22;3844;53.360;9.738;2023-04-25T05:56:04;5.70;94.50
7606;DHT22;3844;53.360;9.738;2023-04-25T05:58:05;5.70;94.80
7606;DHT22;3844;53.360;9.738;2023-04-25T06:00:08;5.80;94.90
7606;DHT22;3844;53.360;9.738;2023-04-25T06:02:09;5.80;94.60
7606;DHT22;3844;53.360;9.738;2023-04-25T06:06:12;5.90;95.30
7606;DHT22;3844;53.360;9.738;2023-04-25T06:08:12;6.00;95.00
7606;DHT22;3844;53.360;9.738;2023-04-25T06:10:13;6.10;94.70
7606;DHT22;3844;53.360;9.738;2023-04-25T06:14:15;6.20;92.40
7606;DHT22;3844;53.360;9.738;2023-04-25T06:16:15;6.30;93.10
7606;DHT22;3844;53.360;9.738;2023-04-25T06:20:17;6.40;92.90
7606;DHT22;3844;53.360;9.738;2023-04-25T06:22:18;6.50;92.60
7606;DHT22;3844;53.360;9.738;2023-04-25T06:24:19;6.50;91.70
7606;DHT22;3844;53.360;9.738;2023-04-25T06:26:19;6.60;92.00
7606;DHT22;3844;53.360;9.738;2023-04-25T06:30:22;6.70;92.30
7606;DHT22;3844;53.360;9.738;2023-04-25T06:36:30;7.00;91.20
7606;DHT22;3844;53.360;9.738;2023-04-25T06:42:33;7.00;88.50
7606;DHT22;3844;53.360;9.738;2023-04-25T06:48:36;7.10;89.10
7606;DHT22;3844;53.360;9.738;2023-04-25T06:50:37;7.20;89.20
7606;DHT22;3844;53.360;9.738;2023-04-25T06:54:39;7.20;89.20
7606;DHT22;3844;53.360;9.738;2023-04-25T06:58:40;7.40;86.50
7606;DHT22;3844;53.360;9.738;2023-04-25T07:00:41;7.40;87.30
7606;DHT22;3844;53.360;9.738;2023-04-25T07:02:42;7.50;86.60
7606;DHT22;3844;53.360;9.738;2023-04-25T07:08:48;7.20;85.60
7606;DHT22;3844;53.360;9.738;2023-04-25T07:12:50;7.10;87.20
7606;DHT22;3844;53.360;9.738;2023-04-25T07:16:52;7.30;87.20
7606;DHT22;3844;53.360;9.738;2023-04-25T07:18:53;7.50;88.00
7606;DHT22;3844;53.360;9.738;2023-04-25T07:20:54;7.90;87.50
7606;DHT22;3844;53.360;9.738;2023-04-25T07:24:56;8.40;84.30
7606;DHT22;3844;53.360;9.738;2023-04-25T07:28:58;8.40;83.50
7606;DHT22;3844;53.360;9.738;2023-04-25T07:33:00;8.20;85.40
7606;DHT22;3844;53.360;9.738;2023-04-25T07:35:00;8.20;85.70
7606;DHT22;3844;53.360;9.738;2023-04-25T07:37:02;8.20;85.90
7606;DHT22;3844;53.360;9.738;2023-04-25T07:39:03;8.20;84.90
7606;DHT22;3844;53.360;9.738;2023-04-25T07:41:03;8.10;86.90
7606;DHT22;3844;53.360;9.738;2023-04-25T07:43:04;8.20;86.20
7606;DHT22;3844;53.360;9.738;2023-04-25T07:45:05;8.30;86.30
7606;DHT22;3844;53.360;9.738;2023-04-25T07:47:07;8.50;86.10
7606;DHT22;3844;53.360;9.738;2023-04-25T07:49:07;8.60;85.30
7606;DHT22;3844;53.360;9.738;2023-04-25T07:53:09;9.10;84.40
7606;DHT22;3844;53.360;9.738;2023-04-25T07:55:10;9.30;82.70
7606;DHT22;3844;53.360;9.738;2023-04-25T07:57:11;9.30;81.20
7606;DHT22;3844;53.360;9.738;2023-04-25T08:01:15;9.60;79.80
7606;DHT22;3844;53.360;9.738;2023-04-25T08:03:15;9.50;78.10
7606;DHT22;3844;53.360;9.738;2023-04-25T08:05:16;9.60;80.00
7606;DHT22;3844;53.360;9.738;2023-04-25T08:09:18;10.20;77.90
7606;DHT22;3844;53.360;9.738;2023-04-25T08:15:21;11.80;72.20
7606;DHT22;3844;53.360;9.738;2023-04-25T08:17:22;12.00;71.30
7606;DHT22;3844;53.360;9.738;2023-04-25T08:21:23;12.40;70.60
7606;DHT22;3844;53.360;9.738;2023-04-25T08:23:24;12.50;68.20
7606;DHT22;3844;53.360;9.738;2023-04-25T08:27:26;12.60;69.80
7606;DHT22;3844;53.360;9.738;2023-04-25T08:31:28;12.00;69.20
7606;DHT22;3844;53.360;9.738;2023-04-25T08:35:30;10.90;72.00
7606;DHT22;3844;53.360;9.738;2023-04-25T08:39:32;9.80;74.80
7606;DHT22;3844;53.360;9.738;2023-04-25T08:41:33;9.50;74.90
7606;DHT22;3844;53.360;9.738;2023-04-25T08:43:34;9.60;76.40
7606;DHT22;3844;53.360;9.738;2023-04-25T08:45:36;10.00;75.50
7606;DHT22;3844;53.360;9.738;2023-04-25T08:47:38;10.40;76.30
7606;DHT22;3844;53.360;9.738;2023-04-25T08:49:40;10.70;75.30
7606;DHT22;3844;53.360;9.738;2023-04-25T08:51:46;10.80;74.60
7606;DHT22;3844;53.360;9.738;2023-04-25T08:53:49;11.10;73.80
7606;DHT22;3844;53.360;9.738;2023-04-25T08:55:51;10.90;73.20
7606;DHT22;3844;53.360;9.738;2023-04-25T08:57:55;11.00;75.90
7606;DHT22;3844;53.360;9.738;2023-04-25T08:59:56;11.00;75.90
7606;DHT22;3844;53.360;9.738;2023-04-25T09:01:57;11.30;73.60
7606;DHT22;3844;53.360;9.738;2023-04-25T09:03:58;11.50;74.60
7606;DHT22;3844;53.360;9.738;2023-04-25T09:05:59;11.70;74.20
7606;DHT22;3844;53.360;9.738;2023-04-25T09:08:01;11.70;73.20
7606;DHT22;3844;53.360;9.738;2023-04-25T09:10:01;11.80;72.10
7606;DHT22;3844;53.360;9.738;2023-04-25T09:12:03;11.90;70.60
7606;DHT22;3844;53.360;9.738;2023-04-25T09:14:22;12.00;70.90
7606;DHT22;3844;53.360;9.738;2023-04-25T09:18:28;13.20;69.90
7606;DHT22;3844;53.360;9.738;2023-04-25T09:20:30;13.50;68.00
7606;DHT22;3844;53.360;9.738;2023-04-25T09:22:30;12.90;64.70
7606;DHT22;3844;53.360;9.738;2023-04-25T09:24:43;11.90;65.40
7606;DHT22;3844;53.360;9.738;2023-04-25T09:26:46;10.60;68.40
7606;DHT22;3844;53.360;9.738;2023-04-25T09:28:47;9.70;71.90
7606;DHT22;3844;53.360;9.738;2023-04-25T09:30:55;9.10;74.90
7606;DHT22;3844;53.360;9.738;2023-04-25T09:32:57;8.80;75.60
7606;DHT22;3844;53.360;9.738;2023-04-25T09:35:04;8.60;76.30
7606;DHT22;3844;53.360;9.738;2023-04-25T09:37:05;8.40;78.30
7606;DHT22;3844;53.360;9.738;2023-04-25T09:39:12;8.20;79.90
7606;DHT22;3844;53.360;9.738;2023-04-25T09:41:25;7.80;81.70
7606;DHT22;3844;53.360;9.738;2023-04-25T09:43:26;7.50;84.00
7606;DHT22;3844;53.360;9.738;2023-04-25T09:45:29;7.30;85.90
7606;DHT22;3844;53.360;9.738;2023-04-25T09:47:31;7.30;88.00
7606;DHT22;3844;53.360;9.738;2023-04-25T09:49:32;7.40;89.00
7606;DHT22;3844;53.360;9.738;2023-04-25T09:51:33;7.70;89.80
7606;DHT22;3844;53.360;9.738;2023-04-25T09:53:38;8.30;87.60
7606;DHT22;3844;53.360;9.738;2023-04-25T09:55:40;9.10;87.50
7606;DHT22;3844;53.360;9.738;2023-04-25T09:57:42;9.60;81.40
7606;DHT22;3844;53.360;9.738;2023-04-25T10:01:46;10.20;77.90
7606;DHT22;3844;53.360;9.738;2023-04-25T10:03:50;10.50;77.90
7606;DHT22;3844;53.360;9.738;2023-04-25T10:05:52;10.50;77.90
7606;DHT22;3844;53.360;9.738;2023-04-25T10:07:53;11.30;77.70
7606;DHT22;3844;53.360;9.738;2023-04-25T10:10:04;11.70;77.50
7606;DHT22;3844;53.360;9.738;2023-04-25T10:12:06;12.00;72.90
7606;DHT22;3844;53.360;9.738;2023-04-25T10:14:07;11.90;75.80
7606;DHT22;3844;53.360;9.738;2023-04-25T10:16:09;12.20;76.10
7606;DHT22;3844;53.360;9.738;2023-04-25T10:18:10;12.50;74.90
7606;DHT22;3844;53.360;9.738;2023-04-25T10:20:11;13.00;73.30
7606;DHT22;3844;53.360;9.738;2023-04-25T10:22:17;13.40;72.30
7606;DHT22;3844;53.360;9.738;2023-04-25T10:24:21;14.00;71.10
7606;DHT22;3844;53.360;9.738;2023-04-25T10:26:21;14.20;65.70
7606;DHT22;3844;53.360;9.738;2023-04-25T10:30:23;14.00;66.50
7606;DHT22;3844;53.360;9.738;2023-04-25T10:34:38;14.90;64.10
7606;DHT22;3844;53.360;9.738;2023-04-25T10:36:40;15.00;63.80
7606;DHT22;3844;53.360;9.738;2023-04-25T10:38:43;14.70;62.00
7606;DHT22;3844;53.360;9.738;2023-04-25T10:41:06;14.10;62.00
7606;DHT22;3844;53.360;9.738;2023-04-25T10:45:51;12.20;66.70
7606;DHT22;3844;53.360;9.738;2023-04-25T10:47:52;11.30;68.50
7606;DHT22;3844;53.360;9.738;2023-04-25T10:52:11;10.00;72.90
7606;DHT22;3844;53.360;9.738;2023-04-25T10:54:12;9.50;75.70
7606;DHT22;3844;53.360;9.738;2023-04-25T10:56:18;8.90;77.00
7606;DHT22;3844;53.360;9.738;2023-04-25T10:58:22;8.60;78.90
7606;DHT22;3844;53.360;9.738;2023-04-25T11:00:23;8.40;81.30
7606;DHT22;3844;53.360;9.738;2023-04-25T11:02:28;8.40;81.30
7606;DHT22;3844;53.360;9.738;2023-04-25T11:04:31;8.30;81.40
7606;DHT22;3844;53.360;9.738;2023-04-25T11:09:11;8.40;82.30
7606;DHT22;3844;53.360;9.738;2023-04-25T11:11:19;8.70;81.90
7606;DHT22;3844;53.360;9.738;2023-04-25T11:13:22;8.80;78.80
7606;DHT22;3844;53.360;9.738;2023-04-25T11:15:23;9.00;80.00
7606;DHT22;3844;53.360;9.738;2023-04-25T11:17:25;9.10;77.40
7606;DHT22;3844;53.360;9.738;2023-04-25T11:19:26;9.40;78.90
7606;DHT22;3844;53.360;9.738;2023-04-25T11:21:27;9.70;75.40
7606;DHT22;3844;53.360;9.738;2023-04-25T11:23:30;10.10;75.40
7606;DHT22;3844;53.360;9.738;2023-04-25T11:25:30;10.50;73.20
7606;DHT22;3844;53.360;9.738;2023-04-25T11:29:34;10.90;71.60
7606;DHT22;3844;53.360;9.738;2023-04-25T11:31:35;11.50;72.10
7606;DHT22;3844;53.360;9.738;2023-04-25T11:35:40;12.10;66.40
7606;DHT22;3844;53.360;9.738;2023-04-25T11:37:42;12.10;67.40
7606;DHT22;3844;53.360;9.738;2023-04-25T11:39:44;12.10;66.90
7606;DHT22;3844;53.360;9.738;2023-04-25T11:41:47;12.30;68.20
7606;DHT22;3844;53.360;9.738;2023-04-25T11:43:48;12.50;65.50
7606;DHT22;3844;53.360;9.738;2023-04-25T11:45:50;12.50;66.30
7606;DHT22;3844;53.360;9.738;2023-04-25T11:47:53;12.70;66.40
7606;DHT22;3844;53.360;9.738;2023-04-25T11:51:55;13.10;65.20
7606;DHT22;3844;53.360;9.738;2023-04-25T11:55:57;13.90;59.70
7606;DHT22;3844;53.360;9.738;2023-04-25T11:58:00;13.40;60.90
7606;DHT22;3844;53.360;9.738;2023-04-25T12:00:14;13.00;62.30
7606;DHT22;3844;53.360;9.738;2023-04-25T12:02:26;12.40;63.00
7606;DHT22;3844;53.360;9.738;2023-04-25T12:04:30;12.10;65.60
7606;DHT22;3844;53.360;9.738;2023-04-25T12:08:32;11.50;66.50
7606;DHT22;3844;53.360;9.738;2023-04-25T12:10:37;11.30;68.20
7606;DHT22;3844;53.360;9.738;2023-04-25T12:12:42;11.50;69.60
7606;DHT22;3844;53.360;9.738;2023-04-25T12:14:46;11.80;68.20
7606;DHT22;3844;53.360;9.738;2023-04-25T12:16:51;12.00;67.90
7606;DHT22;3844;53.360;9.738;2023-04-25T12:18:52;12.60;65.90
7606;DHT22;3844;53.360;9.738;2023-04-25T12:20:54;13.10;64.70
7606;DHT22;3844;53.360;9.738;2023-04-25T12:22:57;13.60;62.50
7606;DHT22;3844;53.360;9.738;2023-04-25T12:27:01;14.30;58.40
7606;DHT22;3844;53.360;9.738;2023-04-25T12:29:02;14.20;60.00
7606;DHT22;3844;53.360;9.738;2023-04-25T12:35:17;12.40;64.20
7606;DHT22;3844;53.360;9.738;2023-04-25T12:37:18;11.80;66.00
7606;DHT22;3844;53.360;9.738;2023-04-25T12:39:20;11.20;65.50
7606;DHT22;3844;53.360;9.738;2023-04-25T12:41:24;10.50;67.00
7606;DHT22;3844;53.360;9.738;2023-04-25T12:43:25;10.00;69.70
7606;DHT22;3844;53.360;9.738;2023-04-25T12:45:26;9.80;71.70
7606;DHT22;3844;53.360;9.738;2023-04-25T12:49:28;9.80;73.70
7606;DHT22;3844;53.360;9.738;2023-04-25T12:51:29;10.10;72.40
7606;DHT22;3844;53.360;9.738;2023-04-25T12:53:30;10.30;73.70
7606;DHT22;3844;53.360;9.738;2023-04-25T12:55:30;10.60;70.40
7606;DHT22;3844;53.360;9.738;2023-04-25T12:59:32;10.90;71.50
7606;DHT22;3844;53.360;9.738;2023-04-25T13:03:34;11.50;67.60
7606;DHT22;3844;53.360;9.738;2023-04-25T13:05:35;11.70;68.30
7606;DHT22;3844;53.360;9.738;2023-04-25T13:09:37;12.00;65.50
7606;DHT22;3844;53.360;9.738;2023-04-25T13:11:37;11.90;64.10
7606;DHT22;3844;53.360;9.738;2023-04-25T13:13:38;12.10;66.30
7606;DHT22;3844;53.360;9.738;2023-04-25T13:17:42;13.30;64.10
7606;DHT22;3844;53.360;9.738;2023-04-25T13:23:44;13.40;63.70
7606;DHT22;3844;53.360;9.738;2023-04-25T13:25:47;13.60;63.00
7606;DHT22;3844;53.360;9.738;2023-04-25T13:27:48;13.80;61.80
7606;DHT22;3844;53.360;9.738;2023-04-25T13:29:48;13.90;61.50
7606;DHT22;3844;53.360;9.738;2023-04-25T13:33:50;14.80;60.40
7606;DHT22;3844;53.360;9.738;2023-04-25T13:35:51;14.90;58.90
7606;DHT22;3844;53.360;9.738;2023-04-25T13:37:56;14.10;59.30
7606;DHT22;3844;53.360;9.738;2023-04-25T13:41:58;12.70;64.40
7606;DHT22;3844;53.360;9.738;2023-04-25T13:46:01;11.80;70.20
7606;DHT22;3844;53.360;9.738;2023-04-25T13:50:03;11.10;63.00
7606;DHT22;3844;53.360;9.738;2023-04-25T13:54:06;11.20;66.60
7606;DHT22;3844;53.360;9.738;2023-04-25T13:56:08;11.60;62.30
7606;DHT22;3844;53.360;9.738;2023-04-25T13:58:11;11.70;61.20
7606;DHT22;3844;53.360;9.738;2023-04-25T14:00:12;11.70;61.30
7606;DHT22;3844;53.360;9.738;2023-04-25T14:02:13;11.60;62.10
7606;DHT22;3844;53.360;9.738;2023-04-25T14:08:23;11.80;64.40
7606;DHT22;3844;53.360;9.738;2023-04-25T14:12:24;11.90;61.50
7606;DHT22;3844;53.360;9.738;2023-04-25T14:14:25;11.90;63.60
7606;DHT22;3844;53.360;9.738;2023-04-25T14:21:29;12.30;61.80
7606;DHT22;3844;53.360;9.738;2023-04-25T14:23:33;12.20;60.10
7606;DHT22;3844;53.360;9.738;2023-04-25T14:25:33;11.80;60.30
7606;DHT22;3844;53.360;9.738;2023-04-25T14:27:36;11.40;61.50
7606;DHT22;3844;53.360;9.738;2023-04-25T14:29:36;11.10;63.40
7606;DHT22;3844;53.360;9.738;2023-04-25T14:31:38;10.90;63.90
7606;DHT22;3844;53.360;9.738;2023-04-25T14:33:42;10.80;64.90
7606;DHT22;3844;53.360;9.738;2023-04-25T14:35:43;10.90;66.00
7606;DHT22;3844;53.360;9.738;2023-04-25T14:37:44;11.10;65.80
7606;DHT22;3844;53.360;9.738;2023-04-25T14:39:45;11.30;63.90
7606;DHT22;3844;53.360;9.738;2023-04-25T14:41:46;11.40;62.70
7606;DHT22;3844;53.360;9.738;2023-04-25T14:43:47;11.30;63.20
7606;DHT22;3844;53.360;9.738;2023-04-25T14:45:47;11.10;62.70
7606;DHT22;3844;53.360;9.738;2023-04-25T14:47:49;10.90;63.90
7606;DHT22;3844;53.360;9.738;2023-04-25T14:49:50;10.90;62.60
7606;DHT22;3844;53.360;9.738;2023-04-25T14:51:54;10.80;62.00
7606;DHT22;3844;53.360;9.738;2023-04-25T14:53:55;10.60;61.60
7606;DHT22;3844;53.360;9.738;2023-04-25T14:55:56;10.60;63.20
7606;DHT22;3844;53.360;9.738;2023-04-25T14:57:57;10.80;61.40
7606;DHT22;3844;53.360;9.738;2023-04-25T14:59:57;10.90;61.40
7606;DHT22;3844;53.360;9.738;2023-04-25T15:01:58;11.10;62.90
7606;DHT22;3844;53.360;9.738;2023-04-25T15:06:00;11.80;64.10
7606;DHT22;3844;53.360;9.738;2023-04-25T15:08:02;11.70;63.40
7606;DHT22;3844;53.360;9.738;2023-04-25T15:10:02;11.50;62.50
7606;DHT22;3844;53.360;9.738;2023-04-25T15:12:03;11.40;65.40
7606;DHT22;3844;53.360;9.738;2023-04-25T15:14:04;11.40;64.10
7606;DHT22;3844;53.360;9.738;2023-04-25T15:16:06;11.40;65.60
7606;DHT22;3844;53.360;9.738;2023-04-25T15:18:07;11.50;62.10
7606;DHT22;3844;53.360;9.738;2023-04-25T15:20:09;11.50;63.00
7606;DHT22;3844;53.360;9.738;2023-04-25T15:22:10;11.50;63.10
7606;DHT22;3844;53.360;9.738;2023-04-25T15:24:11;11.40;64.40
7606;DHT22;3844;53.360;9.738;2023-04-25T15:26:12;11.20;64.50
7606;DHT22;3844;53.360;9.738;2023-04-25T15:28:13;11.00;64.40
7606;DHT22;3844;53.360;9.738;2023-04-25T15:30:17;10.90;64.50
7606;DHT22;3844;53.360;9.738;2023-04-25T15:32:18;10.90;65.20
7606;DHT22;3844;53.360;9.738;2023-04-25T15:34:20;10.90;65.50
7606;DHT22;3844;53.360;9.738;2023-04-25T15:36:21;11.00;65.60
7606;DHT22;3844;53.360;9.738;2023-04-25T15:40:23;10.80;66.20
7606;DHT22;3844;53.360;9.738;2023-04-25T15:44:25;10.50;67.70
7606;DHT22;3844;53.360;9.738;2023-04-25T15:46:26;10.40;68.20
7606;DHT22;3844;53.360;9.738;2023-04-25T15:48:27;10.20;68.60
7606;DHT22;3844;53.360;9.738;2023-04-25T15:50:28;10.10;68.60
7606;DHT22;3844;53.360;9.738;2023-04-25T15:52:29;9.90;69.90
7606;DHT22;3844;53.360;9.738;2023-04-25T15:54:30;9.60;71.90
7606;DHT22;3844;53.360;9.738;2023-04-25T15:58:32;9.30;74.80
7606;DHT22;3844;53.360;9.738;2023-04-25T16:00:33;9.40;75.20
7606;DHT22;3844;53.360;9.738;2023-04-25T16:02:36;9.40;75.20
7606;DHT22;3844;53.360;9.738;2023-04-25T16:04:37;9.60;74.50
7606;DHT22;3844;53.360;9.738;2023-04-25T16:06:38;9.60;74.80
7606;DHT22;3844;53.360;9.738;2023-04-25T16:08:39;9.70;73.70
7606;DHT22;3844;53.360;9.738;2023-04-25T16:10:40;9.60;72.60
7606;DHT22;3844;53.360;9.738;2023-04-25T16:12:41;9.40;71.90
7606;DHT22;3844;53.360;9.738;2023-04-25T16:14:43;9.20;70.20
7606;DHT22;3844;53.360;9.738;2023-04-25T16:16:44;9.10;70.80
7606;DHT22;3844;53.360;9.738;2023-04-25T16:18:45;9.00;71.00
7606;DHT22;3844;53.360;9.738;2023-04-25T16:20:45;8.90;71.40
7606;DHT22;3844;53.360;9.738;2023-04-25T16:22:46;8.90;71.70
7606;DHT22;3844;53.360;9.738;2023-04-25T16:24:47;8.80;71.60
7606;DHT22;3844;53.360;9.738;2023-04-25T16:26:48;8.70;71.50
7606;DHT22;3844;53.360;9.738;2023-04-25T16:28:49;8.70;72.20
7606;DHT22;3844;53.360;9.738;2023-04-25T16:30:50;8.70;72.90
7606;DHT22;3844;53.360;9.738;2023-04-25T16:32:50;8.70;72.60
7606;DHT22;3844;53.360;9.738;2023-04-25T16:34:51;8.70;73.20
7606;DHT22;3844;53.360;9.738;2023-04-25T16:36:55;8.60;72.20
7606;DHT22;3844;53.360;9.738;2023-04-25T16:38:56;8.60;72.70
7606;DHT22;3844;53.360;9.738;2023-04-25T16:42:58;8.50;73.90
7606;DHT22;3844;53.360;9.738;2023-04-25T16:44:58;8.40;74.80
7606;DHT22;3844;53.360;9.738;2023-04-25T16:46:59;8.20;77.10
7606;DHT22;3844;53.360;9.738;2023-04-25T16:49:00;7.80;79.40
7606;DHT22;3844;53.360;9.738;2023-04-25T16:53:02;7.10;83.50
7606;DHT22;3844;53.360;9.738;2023-04-25T16:55:03;6.90;84.00
7606;DHT22;3844;53.360;9.738;2023-04-25T16:57:04;6.80;85.50
7606;DHT22;3844;53.360;9.738;2023-04-25T16:59:05;6.80;85.30
7606;DHT22;3844;53.360;9.738;2023-04-25T17:03:07;6.80;86.40
7606;DHT22;3844;53.360;9.738;2023-04-25T17:05:08;6.90;85.20
7606;DHT22;3844;53.360;9.738;2023-04-25T17:07:09;7.00;87.20
7606;DHT22;3844;53.360;9.738;2023-04-25T17:11:11;7.10;87.00
7606;DHT22;3844;53.360;9.738;2023-04-25T17:13:12;7.20;86.70
7606;DHT22;3844;53.360;9.738;2023-04-25T17:15:13;7.10;85.80
7606;DHT22;3844;53.360;9.738;2023-04-25T17:17:14;7.10;86.60
7606;DHT22;3844;53.360;9.738;2023-04-25T17:19:14;7.00;86.00
7606;DHT22;3844;53.360;9.738;2023-04-25T17:21:16;6.90;85.60
7606;DHT22;3844;53.360;9.738;2023-04-25T17:23:17;6.90;86.30